Time;durP1;ratioP1;P1;durP2;ratioP2;P2;SDS_P1;SDS_P2;PMS_P1;PMS_P2;Temp;Humidity;BMP_temperature;BMP_pressure;BME280_temperature;BME280_humidity;BME280_pressure;Samples;Min_cycle;Max_cycle;Signal;HPM_P1;HPM_P2
2024/01/30 00:00:09;;;;;;;4.20;1.80;;;5.50;1.00;;;;;;5074532;28;20428;-58
2024/01/30 00:02:36;;;;;;;3.20;1.27;;;5.50;99.90;;;;;;5089333;28;20429;-58
2024/01/30 00:05:04;;;;;;;3.30;1.30;;;5.50;99.90;;;;;;5085503;28;20496;-58
2024/01/30 00:07:31;;;;;;;2.60;1.23;;;5.50;1.00;;;;;;5086898;28;20849;-58
2024/01/30 00:09:58;;;;;;;2.88;1.30;;;5.50;1.00;;;;;;5092503;28;20417;-58
2024/01/30 00:12:26;;;;;;;2.95;1.10;;;5.50;21.10;;;;;;5072705;28;20427;-58
2024/01/30 00:14:54;;;;;;;3.45;1.20;;;5.50;1.00;;;;;;5073065;28;20427;-58
2024/01/30 00:17:21;;;;;;;2.73;1.30;;;5.50;1.00;;;;;;5072994;28;20427;-58
2024/01/30 00:19:48;;;;;;;3.20;1.20;;;5.40;1.00;;;;;;5073126;28;20455;-59
2024/01/30 00:22:15;;;;;;;2.80;1.10;;;5.50;1.00;;;;;;5074378;28;20508;-59
2024/01/30 00:24:42;;;;;;;2.28;1.20;;;5.40;1.00;;;;;;5093915;28;20421;-58
2024/01/30 00:27:10;;;;;;;2.42;1.17;;;5.40;99.90;;;;;;5094155;28;20739;-58
2024/01/30 00:29:38;;;;;;;2.80;1.30;;;5.40;1.00;;;;;;5093289;28;20673;-59
2024/01/30 00:32:06;;;;;;;2.28;1.20;;;5.30;1.00;;;;;;5094218;28;20425;-59
2024/01/30 00:34:33;;;;;;;2.70;1.27;;;5.30;1.00;;;;;;5092630;28;20474;-58
2024/01/30 00:37:00;;;;;;;3.17;1.30;;;5.30;1.00;;;;;;5091859;28;20425;-58
2024/01/30 00:39:27;;;;;;;2.70;1.30;;;5.30;1.00;;;;;;5092064;28;20453;-58
2024/01/30 00:41:54;;;;;;;2.90;1.30;;;5.30;1.00;;;;;;5089009;28;20442;-58
2024/01/30 00:44:21;;;;;;;2.30;1.10;;;5.30;1.00;;;;;;5088725;28;20843;-58
2024/01/30 00:46:50;;;;;;;2.40;1.00;;;5.30;99.90;;;;;;5090913;28;20437;-58
2024/01/30 00:49:17;;;;;;;2.90;1.30;;;5.30;99.90;;;;;;5075275;28;20485;-58
2024/01/30 00:51:44;;;;;;;2.00;1.20;;;5.30;3.20;;;;;;5084506;28;20951;-58
2024/01/30 00:54:11;;;;;;;3.00;1.30;;;5.30;1.00;;;;;;5075397;28;20426;-58
2024/01/30 00:56:38;;;;;;;2.50;1.20;;;5.20;1.00;;;;;;5094052;28;20449;-58
2024/01/30 00:59:05;;;;;;;2.30;1.20;;;5.40;1.00;;;;;;5091904;28;20447;-58
2024/01/30 01:01:32;;;;;;;3.10;1.50;;;5.40;1.00;;;;;;5086837;28;20815;-58
2024/01/30 01:04:00;;;;;;;2.70;1.13;;;5.40;26.50;;;;;;5078084;28;20423;-58
2024/01/30 01:06:27;;;;;;;2.60;1.10;;;5.40;1.00;;;;;;5075176;28;20826;-58
2024/01/30 01:08:54;;;;;;;2.95;1.27;;;5.40;99.90;;;;;;5079295;28;20849;-58
2024/01/30 01:11:21;;;;;;;2.67;1.20;;;5.30;99.90;;;;;;5072991;28;20431;-58
2024/01/30 01:13:49;;;;;;;2.30;1.20;;;5.30;1.00;;;;;;5072389;28;20693;-57
2024/01/30 01:16:16;;;;;;;3.23;1.10;;;5.30;1.00;;;;;;5072786;28;20477;-57
2024/01/30 01:18:43;;;;;;;4.28;1.20;;;5.40;1.00;;;;;;5091695;28;20426;-58
2024/01/30 01:21:11;;;;;;;3.23;1.30;;;5.40;1.00;;;;;;5090046;28;20443;-58
2024/01/30 01:23:38;;;;;;;1.60;1.10;;;5.40;1.00;;;;;;5080988;28;20457;-58
2024/01/30 01:26:05;;;;;;;2.53;1.30;;;5.40;99.90;;;;;;5084985;28;20469;-58
2024/01/30 01:28:32;;;;;;;3.03;1.20;;;5.30;1.00;;;;;;5072836;28;20431;-58
2024/01/30 01:31:04;;;;;;;2.85;1.20;;;5.30;1.00;;;;;;5073394;28;20423;-59
2024/01/30 01:33:32;;;;;;;2.20;1.20;;;5.30;1.00;;;;;;5091830;28;20498;-58
2024/01/30 01:35:59;;;;;;;3.42;1.30;;;5.40;99.90;;;;;;5078432;28;20500;-59
2024/01/30 01:38:28;;;;;;;2.60;1.20;;;5.30;1.00;;;;;;5091608;28;20510;-58
2024/01/30 01:40:55;;;;;;;1.63;1.08;;;5.30;1.00;;;;;;5076472;28;20425;-58
2024/01/30 01:43:22;;;;;;;2.03;1.10;;;5.30;1.00;;;;;;5092477;28;20421;-57
2024/01/30 01:45:49;;;;;;;2.20;1.20;;;5.30;1.00;;;;;;5093513;28;20490;-59
2024/01/30 01:48:16;;;;;;;3.25;1.10;;;5.30;99.90;;;;;;5074493;28;20435;-58
2024/01/30 01:50:44;;;;;;;2.97;1.20;;;5.20;1.00;;;;;;5080289;28;20441;-59
2024/01/30 01:53:13;;;;;;;2.80;1.10;;;5.30;1.00;;;;;;5092081;28;20495;-58
2024/01/30 01:55:41;;;;;;;3.72;1.10;;;5.20;1.00;;;;;;5091116;28;20426;-59
2024/01/30 01:58:09;;;;;;;2.30;1.20;;;5.20;1.00;;;;;;5071588;28;20431;-58
2024/01/30 02:00:39;;;;;;;2.38;1.40;;;5.20;1.00;;;;;;5079695;28;20457;-58
2024/01/30 02:03:07;;;;;;;2.00;0.90;;;5.20;1.00;;;;;;5081444;28;20902;-58
2024/01/30 02:05:35;;;;;;;1.98;1.10;;;5.20;1.00;;;;;;5076235;28;20505;-59
2024/01/30 02:08:03;;;;;;;2.58;1.08;;;5.10;1.00;;;;;;5087740;28;20929;-59
2024/01/30 02:10:30;;;;;;;2.67;1.00;;;5.10;1.00;;;;;;5087529;28;20823;-58
2024/01/30 02:12:58;;;;;;;2.35;1.00;;;5.10;1.00;;;;;;5071133;28;20426;-59
2024/01/30 02:15:25;;;;;;;2.10;0.95;;;5.10;99.90;;;;;;5070911;28;20829;-59
2024/01/30 02:17:52;;;;;;;2.15;1.10;;;5.10;1.00;;;;;;5071159;28;20415;-59
2024/01/30 02:20:19;;;;;;;2.30;1.08;;;5.10;1.00;;;;;;5071086;28;20887;-58
2024/01/30 02:22:49;;;;;;;1.92;1.00;;;5.10;1.00;;;;;;5075868;28;20803;-58
2024/01/30 02:25:16;;;;;;;2.50;1.15;;;5.10;55.00;;;;;;5091371;28;20817;-58
2024/01/30 02:27:43;;;;;;;2.38;1.10;;;5.00;1.00;;;;;;5090438;28;20437;-58
2024/01/30 02:30:11;;;;;;;1.70;1.00;;;5.00;1.00;;;;;;5092333;28;20422;-58
2024/01/30 02:32:38;;;;;;;2.10;1.00;;;4.90;21.90;;;;;;5093069;28;20827;-58
2024/01/30 02:35:05;;;;;;;2.63;1.10;;;4.90;99.90;;;;;;5093232;28;20456;-58
2024/01/30 02:37:32;;;;;;;2.45;1.10;;;4.90;99.90;;;;;;5091863;28;20410;-59
2024/01/30 02:40:01;;;;;;;1.83;0.90;;;4.90;1.00;;;;;;5087112;28;20866;-59
2024/01/30 02:42:28;;;;;;;1.70;1.10;;;4.90;1.00;;;;;;5072777;28;20435;-58
2024/01/30 02:44:55;;;;;;;1.73;1.00;;;4.80;13.80;;;;;;5088572;28;20425;-58
2024/01/30 02:47:22;;;;;;;2.00;0.90;;;4.80;95.90;;;;;;5092966;28;20445;-59
2024/01/30 02:49:49;;;;;;;1.85;1.00;;;4.90;99.90;;;;;;5076469;28;20438;-58
2024/01/30 02:52:16;;;;;;;1.95;1.10;;;4.80;99.90;;;;;;5078917;28;20432;-58
2024/01/30 02:54:43;;;;;;;2.70;1.10;;;4.90;53.60;;;;;;5084900;28;20434;-58
2024/01/30 02:57:11;;;;;;;1.55;0.82;;;4.80;1.00;;;;;;5090645;28;20439;-58
2024/01/30 02:59:38;;;;;;;1.50;0.90;;;4.80;1.00;;;;;;5075300;28;20419;-58
2024/01/30 03:02:05;;;;;;;1.67;0.90;;;4.80;99.90;;;;;;5081525;28;20488;-59
2024/01/30 03:04:32;;;;;;;2.58;1.00;;;4.80;98.50;;;;;;5075391;28;20427;-58
2024/01/30 03:06:59;;;;;;;1.90;1.00;;;4.80;99.90;;;;;;5085815;28;20457;-59
2024/01/30 03:09:25;;;;;;;2.17;1.10;;;4.70;13.50;;;;;;5077938;28;20441;-59
2024/01/30 03:11:52;;;;;;;2.50;1.00;;;4.70;45.90;;;;;;5079223;28;20434;-59
2024/01/30 03:14:21;;;;;;;2.00;1.10;;;4.60;99.90;;;;;;5091220;28;20462;-59
2024/01/30 03:16:48;;;;;;;3.25;1.10;;;4.50;1.00;;;;;;5080259;28;20890;-60
2024/01/30 03:19:15;;;;;;;3.00;1.10;;;4.60;1.00;;;;;;5095217;28;20418;-59
2024/01/30 03:21:42;;;;;;;2.17;1.20;;;4.60;1.00;;;;;;5093717;28;20503;-59
2024/01/30 03:24:09;;;;;;;2.30;1.10;;;4.60;1.00;;;;;;5095040;28;20422;-59
2024/01/30 03:26:36;;;;;;;1.90;1.00;;;4.60;1.00;;;;;;5090358;28;20437;-59
2024/01/30 03:29:03;;;;;;;3.20;1.10;;;4.70;1.00;;;;;;5076236;28;20453;-59
2024/01/30 03:31:32;;;;;;;2.40;1.23;;;4.70;1.00;;;;;;5086279;28;20880;-59
2024/01/30 03:33:59;;;;;;;2.28;1.10;;;4.80;1.00;;;;;;5080223;28;20432;-59
2024/01/30 03:36:26;;;;;;;2.83;1.20;;;4.80;99.90;;;;;;5089210;28;20427;-59
2024/01/30 03:38:53;;;;;;;1.88;1.02;;;4.80;99.90;;;;;;5075258;28;20493;-59
2024/01/30 03:41:20;;;;;;;3.33;1.10;;;4.70;99.90;;;;;;5087716;28;20471;-59
2024/01/30 03:43:48;;;;;;;3.47;1.20;;;4.70;99.90;;;;;;5078804;28;20463;-59
2024/01/30 03:46:15;;;;;;;1.45;1.00;;;4.70;99.90;;;;;;5074318;28;20427;-59
2024/01/30 03:48:43;;;;;;;2.80;1.20;;;4.70;99.90;;;;;;5074141;28;20497;-59
2024/01/30 03:51:14;;;;;;;2.40;1.10;;;4.70;99.90;;;;;;5081178;28;20504;-59
2024/01/30 03:53:41;;;;;;;1.80;1.10;;;4.70;99.90;;;;;;5076308;28;20447;-59
2024/01/30 03:56:08;;;;;;;3.78;1.10;;;4.70;99.90;;;;;;5078914;28;20442;-59
2024/01/30 03:58:35;;;;;;;1.88;1.00;;;4.80;99.90;;;;;;5090284;28;20441;-59
2024/01/30 04:01:02;;;;;;;3.60;1.00;;;4.70;99.90;;;;;;5091286;28;20424;-59
2024/01/30 04:03:29;;;;;;;2.67;1.20;;;4.70;99.90;;;;;;5094197;28;20437;-60
2024/01/30 04:05:57;;;;;;;2.70;1.20;;;4.70;99.90;;;;;;5081163;28;20427;-59
2024/01/30 04:08:24;;;;;;;2.80;1.10;;;4.70;99.90;;;;;;5074200;28;20611;-59
2024/01/30 04:10:51;;;;;;;3.83;1.10;;;4.60;99.90;;;;;;5080709;28;20444;-59
2024/01/30 04:13:18;;;;;;;2.90;1.20;;;4.60;99.90;;;;;;5093761;28;20424;-59
2024/01/30 04:15:46;;;;;;;1.98;1.00;;;4.60;99.90;;;;;;5094225;28;20494;-59
2024/01/30 04:18:13;;;;;;;2.45;1.30;;;4.60;99.90;;;;;;5093840;28;20422;-59
2024/01/30 04:20:40;;;;;;;2.85;1.23;;;4.60;99.90;;;;;;5094561;28;20463;-59
2024/01/30 04:23:08;;;;;;;2.20;1.15;;;4.60;99.90;;;;;;5086742;28;20428;-59
2024/01/30 04:25:35;;;;;;;1.70;1.20;;;4.50;99.90;;;;;;5089916;28;20501;-59
2024/01/30 04:28:02;;;;;;;1.80;1.17;;;4.50;1.00;;;;;;5092621;28;20456;-59
2024/01/30 04:30:29;;;;;;;1.88;1.15;;;4.50;99.90;;;;;;5093425;28;20422;-59
2024/01/30 04:32:56;;;;;;;2.22;1.20;;;4.50;99.90;;;;;;5093663;28;20926;-57
2024/01/30 04:35:24;;;;;;;1.83;1.50;;;4.50;1.00;;;;;;5092829;28;20437;-59
2024/01/30 04:37:52;;;;;;;3.50;1.20;;;4.50;1.00;;;;;;5093802;28;20498;-59
2024/01/30 04:40:21;;;;;;;1.90;1.20;;;4.50;1.00;;;;;;5091275;28;20487;-59
2024/01/30 04:42:48;;;;;;;2.00;1.10;;;4.50;1.00;;;;;;5092220;28;20764;-59
2024/01/30 04:45:15;;;;;;;2.10;1.10;;;4.50;1.00;;;;;;5092083;28;20852;-56
2024/01/30 04:47:42;;;;;;;2.90;1.30;;;4.90;1.00;;;;;;5089132;28;20430;-58
2024/01/30 04:50:10;;;;;;;2.20;0.98;;;4.90;1.00;;;;;;5087763;28;20556;-58
2024/01/30 04:52:37;;;;;;;2.47;1.23;;;4.90;99.90;;;;;;5074157;28;20423;-58
2024/01/30 04:55:04;;;;;;;2.60;1.30;;;4.90;1.00;;;;;;5085158;28;20417;-58
2024/01/30 04:57:33;;;;;;;3.40;1.30;;;4.80;1.00;;;;;;5091239;28;20491;-58
2024/01/30 05:00:00;;;;;;;1.80;1.15;;;4.70;1.00;;;;;;5093315;28;20430;-58
2024/01/30 05:02:28;;;;;;;3.28;1.20;;;4.60;1.00;;;;;;5087209;28;20434;-59
2024/01/30 05:04:55;;;;;;;2.50;1.20;;;4.60;76.60;;;;;;5072045;28;20437;-59
2024/01/30 05:07:22;;;;;;;2.08;1.20;;;4.50;1.00;;;;;;5076393;28;20425;-59
2024/01/30 05:09:49;;;;;;;1.90;1.00;;;4.50;1.00;;;;;;5092087;28;20796;-59
2024/01/30 05:12:16;;;;;;;2.08;1.20;;;4.40;99.90;;;;;;5080121;28;20429;-58
2024/01/30 05:14:44;;;;;;;2.50;1.10;;;4.50;99.90;;;;;;5084351;28;20441;-57
2024/01/30 05:17:12;;;;;;;2.10;1.40;;;4.50;99.90;;;;;;5090269;28;20438;-59
2024/01/30 05:19:39;;;;;;;2.43;1.20;;;4.50;99.90;;;;;;5092488;28;20699;-58
2024/01/30 05:22:07;;;;;;;2.50;1.10;;;4.40;99.90;;;;;;5082511;28;20428;-58
2024/01/30 05:24:34;;;;;;;3.85;1.23;;;4.50;99.90;;;;;;5080397;28;20432;-58
2024/01/30 05:27:01;;;;;;;1.90;1.00;;;4.50;99.90;;;;;;5077310;28;20496;-58
2024/01/30 05:29:28;;;;;;;3.30;1.38;;;4.40;99.90;;;;;;5072562;28;20446;-59
2024/01/30 05:31:57;;;;;;;2.20;1.17;;;4.40;99.90;;;;;;5087507;28;20512;-58
2024/01/30 05:34:23;;;;;;;3.38;1.33;;;4.30;99.90;;;;;;5091461;28;20428;-58
2024/01/30 05:36:51;;;;;;;3.00;1.20;;;4.40;99.90;;;;;;5090482;28;20426;-58
2024/01/30 05:39:18;;;;;;;3.40;1.30;;;4.40;1.00;;;;;;5091059;28;20437;-58
2024/01/30 05:41:45;;;;;;;3.40;1.20;;;4.30;1.00;;;;;;5083161;28;21067;-58
2024/01/30 05:44:12;;;;;;;2.53;1.23;;;4.30;1.00;;;;;;5073580;28;20965;-58
2024/01/30 05:46:39;;;;;;;2.63;1.20;;;4.30;1.00;;;;;;5088795;28;20818;-58
2024/01/30 05:49:07;;;;;;;3.80;1.70;;;4.40;1.00;;;;;;5090678;28;20425;-58
2024/01/30 05:51:34;;;;;;;2.85;1.10;;;4.30;1.00;;;;;;5087863;28;20436;-58
2024/01/30 05:54:03;;;;;;;3.50;1.40;;;4.40;99.90;;;;;;5091966;28;20470;-58
2024/01/30 05:56:30;;;;;;;1.85;1.10;;;4.40;1.00;;;;;;5076049;28;20514;-59
2024/01/30 05:58:57;;;;;;;2.50;1.30;;;4.40;1.00;;;;;;5076623;28;20429;-56
2024/01/30 06:01:24;;;;;;;2.80;1.30;;;4.40;99.90;;;;;;5086207;28;20425;-57
2024/01/30 06:03:51;;;;;;;2.33;1.13;;;4.40;99.90;;;;;;5090550;28;20433;-58
2024/01/30 06:06:19;;;;;;;2.35;1.30;;;4.40;1.00;;;;;;5090997;28;20541;-58
2024/01/30 06:08:46;;;;;;;3.47;1.60;;;4.50;99.90;;;;;;5081711;28;20445;-58
2024/01/30 06:11:13;;;;;;;2.27;1.30;;;4.50;99.90;;;;;;5090124;28;20434;-58
2024/01/30 06:13:40;;;;;;;2.73;1.40;;;4.50;99.90;;;;;;5091222;28;20437;-58
2024/01/30 06:16:11;;;;;;;3.87;1.27;;;4.50;1.00;;;;;;5088213;28;20468;-58
2024/01/30 06:18:38;;;;;;;2.20;1.30;;;5.10;1.00;;;;;;5074164;28;20898;-58
2024/01/30 06:21:06;;;;;;;2.70;1.70;;;5.30;1.00;;;;;;5091443;28;20441;-58
2024/01/30 06:23:34;;;;;;;4.20;1.50;;;5.20;99.90;;;;;;5082258;28;20508;-58
2024/01/30 06:26:01;;;;;;;2.50;1.33;;;5.20;99.90;;;;;;5089288;28;20525;-59
2024/01/30 06:28:28;;;;;;;4.10;1.70;;;5.30;1.00;;;;;;5074647;28;20440;-59
2024/01/30 06:30:55;;;;;;;2.20;1.20;;;5.20;1.00;;;;;;5073561;28;20840;-58
2024/01/30 06:33:22;;;;;;;5.05;2.50;;;5.50;1.00;;;;;;5086968;28;20429;-58
2024/01/30 06:35:49;;;;;;;15.63;5.63;;;5.60;99.90;;;;;;5081281;28;20443;-58
2024/01/30 06:38:16;;;;;;;5.80;1.90;;;5.60;1.00;;;;;;5087665;28;20823;-59
2024/01/30 06:40:46;;;;;;;4.20;1.63;;;5.30;99.90;;;;;;5076195;28;20426;-58
2024/01/30 06:43:14;;;;;;;3.65;1.50;;;5.20;99.90;;;;;;5084376;28;20434;-59
2024/01/30 06:45:42;;;;;;;2.90;1.40;;;5.10;1.00;;;;;;5079729;28;20526;-58
2024/01/30 06:48:09;;;;;;;3.40;1.50;;;5.10;99.90;;;;;;5080326;28;20790;-58
2024/01/30 06:50:36;;;;;;;3.00;1.40;;;5.20;99.90;;;;;;5074079;28;20459;-58
2024/01/30 06:53:04;;;;;;;2.63;1.30;;;5.20;99.90;;;;;;5074183;28;20723;-59
2024/01/30 06:55:31;;;;;;;2.00;1.20;;;5.40;99.90;;;;;;5089040;28;20417;-58
2024/01/30 06:57:59;;;;;;;3.03;1.30;;;5.40;99.90;;;;;;5092988;28;20446;-58
2024/01/30 07:00:26;;;;;;;3.72;1.48;;;5.30;1.00;;;;;;5092465;28;20696;-57
2024/01/30 07:02:53;;;;;;;2.60;1.40;;;5.20;1.00;;;;;;5094674;28;20430;-58
2024/01/30 07:05:21;;;;;;;3.70;1.60;;;5.00;99.90;;;;;;5094492;28;20441;-58
2024/01/30 07:07:48;;;;;;;2.80;1.60;;;5.00;1.00;;;;;;5092917;28;20490;-58
2024/01/30 07:10:15;;;;;;;2.17;1.50;;;4.90;1.00;;;;;;5092577;28;20430;-58
2024/01/30 07:12:42;;;;;;;5.70;1.83;;;4.80;1.00;;;;;;5093364;28;20413;-57
2024/01/30 07:15:13;;;;;;;2.40;1.50;;;4.80;99.90;;;;;;5092515;28;20421;-58
2024/01/30 07:17:40;;;;;;;4.45;2.33;;;4.80;99.90;;;;;;5092987;28;20687;-59
2024/01/30 07:20:09;;;;;;;3.10;1.60;;;4.90;1.00;;;;;;5092935;28;20426;-58
2024/01/30 07:22:36;;;;;;;3.30;1.60;;;5.00;1.00;;;;;;5093368;28;20422;-56
2024/01/30 07:25:03;;;;;;;3.70;1.67;;;5.10;99.90;;;;;;5092729;28;20432;-59
2024/01/30 07:27:30;;;;;;;4.20;1.80;;;5.00;1.00;;;;;;5093198;28;20432;-56
2024/01/30 07:29:57;;;;;;;5.00;1.80;;;5.00;1.00;;;;;;5093263;28;20808;-59
2024/01/30 07:32:25;;;;;;;4.40;2.33;;;5.20;99.90;;;;;;5084991;28;20814;-59
2024/01/30 07:34:52;;;;;;;4.07;2.10;;;5.20;1.00;;;;;;5081863;28;20427;-59
2024/01/30 07:37:19;;;;;;;6.63;1.70;;;5.10;1.00;;;;;;5072838;28;20424;-59
2024/01/30 07:39:46;;;;;;;3.40;1.80;;;5.00;1.00;;;;;;5091992;28;20971;-58
2024/01/30 07:42:13;;;;;;;3.83;1.70;;;5.00;1.00;;;;;;5092766;28;20425;-59
2024/01/30 07:44:40;;;;;;;4.40;2.08;;;5.00;99.70;;;;;;5087906;28;20494;-59
2024/01/30 07:47:08;;;;;;;2.83;1.47;;;5.10;10.00;;;;;;5086398;28;20498;-59
2024/01/30 07:49:37;;;;;;;2.80;1.75;;;5.20;1.00;;;;;;5093690;28;20437;-59
2024/01/30 07:52:27;;;;;;;2.50;1.40;;;5.10;1.00;;;;;;5073686;28;20485;-59
2024/01/30 07:54:55;;;;;;;2.40;1.40;;;5.20;1.00;;;;;;5082915;28;20866;-58
2024/01/30 07:57:22;;;;;;;3.53;1.55;;;5.40;99.90;;;;;;5093783;28;20429;-58
2024/01/30 07:59:49;;;;;;;2.83;1.45;;;5.40;1.00;;;;;;5092391;28;20418;-59
2024/01/30 08:02:16;;;;;;;2.15;1.50;;;5.50;99.90;;;;;;5086384;28;20426;-55
2024/01/30 08:04:48;;;;;;;2.17;1.30;;;5.60;1.00;;;;;;5074695;28;20516;-56
2024/01/30 08:07:15;;;;;;;4.07;1.55;;;5.80;1.00;;;;;;5072425;28;20522;-55
2024/01/30 08:09:42;;;;;;;4.20;1.80;;;5.80;97.20;;;;;;5073342;28;20680;-58
2024/01/30 08:12:09;;;;;;;2.10;1.60;;;6.00;1.00;;;;;;5078308;28;20434;-58
2024/01/30 08:14:36;;;;;;;3.00;1.70;;;6.30;1.00;;;;;;5081630;28;21008;-56
2024/01/30 08:17:03;;;;;;;2.00;1.40;;;6.30;66.70;;;;;;5078822;28;21988;-58
2024/01/30 08:19:30;;;;;;;4.50;1.70;;;6.50;1.00;;;;;;5087390;28;20819;-58
2024/01/30 08:21:59;;;;;;;4.82;2.15;;;6.50;1.00;;;;;;5077909;28;20448;-58
2024/01/30 08:24:26;;;;;;;3.03;1.90;;;6.40;1.00;;;;;;5086542;28;20550;-59
2024/01/30 08:26:53;;;;;;;4.10;2.30;;;6.50;99.90;;;;;;5081339;28;20504;-59
2024/01/30 08:29:20;;;;;;;3.40;2.10;;;6.50;1.00;;;;;;5074224;28;20521;-57
2024/01/30 08:31:47;;;;;;;4.50;2.10;;;6.60;99.90;;;;;;5074571;28;20450;-58
2024/01/30 08:34:14;;;;;;;3.80;1.52;;;6.60;1.00;;;;;;5075826;28;20417;-59
2024/01/30 08:36:41;;;;;;;4.38;1.75;;;6.50;80.20;;;;;;5091933;28;20430;-58
2024/01/30 08:39:10;;;;;;;3.50;1.50;;;6.50;1.00;;;;;;5091276;28;20422;-57
2024/01/30 08:41:37;;;;;;;4.70;1.30;;;6.50;1.00;;;;;;5089460;28;20425;-58
2024/01/30 08:44:04;;;;;;;5.00;1.70;;;6.60;99.90;;;;;;5080370;28;20426;-58
2024/01/30 08:46:31;;;;;;;3.30;1.70;;;6.80;99.90;;;;;;5078428;28;20481;-58
2024/01/30 08:48:58;;;;;;;4.25;1.90;;;6.80;99.90;;;;;;5081055;28;20460;-59
2024/01/30 08:51:26;;;;;;;4.88;1.73;;;6.80;99.90;;;;;;5080674;28;20431;-58
2024/01/30 08:53:53;;;;;;;3.60;1.70;;;6.80;99.90;;;;;;5087642;28;20798;-59
2024/01/30 08:56:22;;;;;;;4.65;1.70;;;6.80;99.90;;;;;;5079888;28;20435;-59
2024/01/30 08:58:49;;;;;;;3.80;2.00;;;6.80;99.90;;;;;;5071734;28;20424;-59
2024/01/30 09:01:17;;;;;;;3.90;1.90;;;6.80;99.90;;;;;;5087332;28;20483;-59
2024/01/30 09:03:47;;;;;;;5.10;1.95;;;6.90;99.90;;;;;;5082151;28;20431;-59
2024/01/30 09:06:15;;;;;;;6.68;2.40;;;6.90;99.90;;;;;;5070965;28;20479;-59
2024/01/30 09:08:43;;;;;;;4.30;2.27;;;7.00;99.90;;;;;;5082344;28;20812;-58
2024/01/30 09:11:11;;;;;;;5.00;2.10;;;7.00;99.90;;;;;;5082215;28;20448;-58
2024/01/30 09:13:43;;;;;;;4.10;2.38;;;7.10;99.90;;;;;;5079964;28;20481;-59
2024/01/30 09:16:12;;;;;;;4.00;2.00;;;7.10;99.90;;;;;;5069451;28;20424;-59
2024/01/30 09:18:40;;;;;;;7.93;3.10;;;7.30;99.90;;;;;;5069773;28;20711;-59
2024/01/30 09:21:09;;;;;;;3.15;2.30;;;7.30;40.30;;;;;;5070806;28;20424;-59
2024/01/30 09:23:36;;;;;;;4.32;2.28;;;7.40;1.00;;;;;;5069686;28;20514;-59
2024/01/30 09:26:03;;;;;;;6.90;3.05;;;7.40;1.00;;;;;;5088302;28;20442;-59
2024/01/30 09:28:30;;;;;;;6.05;2.42;;;7.40;1.00;;;;;;5075613;28;20416;-59
2024/01/30 09:30:58;;;;;;;6.85;3.15;;;7.40;1.00;;;;;;5071393;28;20443;-58
2024/01/30 09:33:25;;;;;;;7.20;2.75;;;7.40;1.00;;;;;;5091099;28;20490;-58
2024/01/30 09:35:52;;;;;;;7.35;2.78;;;7.30;1.00;;;;;;5090589;28;20421;-59
2024/01/30 09:38:19;;;;;;;4.82;2.75;;;7.40;1.00;;;;;;5090081;28;21003;-59
2024/01/30 09:40:54;;;;;;;3.72;2.22;;;7.50;1.00;;;;;;5088795;28;20448;-60
2024/01/30 09:43:23;;;;;;;4.53;2.83;;;7.60;1.00;;;;;;5070457;28;20471;-59
2024/01/30 09:45:51;;;;;;;3.30;2.37;;;7.70;1.00;;;;;;5089974;28;20863;-60
2024/01/30 09:48:20;;;;;;;5.75;2.97;;;7.70;1.00;;;;;;5088236;28;20556;-59
2024/01/30 09:50:50;;;;;;;4.22;2.35;;;7.90;1.00;;;;;;5085985;28;20518;-60
2024/01/30 09:53:18;;;;;;;4.93;2.92;;;8.00;1.00;;;;;;5071358;28;20435;-59
2024/01/30 09:55:46;;;;;;;5.93;3.10;;;8.20;1.00;;;;;;5084765;28;20455;-59
2024/01/30 09:58:14;;;;;;;4.80;2.63;;;8.30;1.00;;;;;;5088933;28;20451;-59
2024/01/30 10:00:41;;;;;;;7.30;3.92;;;8.20;1.00;;;;;;5088506;28;20428;-60
2024/01/30 10:03:08;;;;;;;5.75;2.65;;;8.30;1.00;;;;;;5090331;28;20432;-60
2024/01/30 10:05:38;;;;;;;3.72;2.40;;;8.30;1.00;;;;;;5090017;28;20530;-60
2024/01/30 10:08:08;;;;;;;5.07;2.50;;;8.30;99.90;;;;;;5089885;28;20511;-59
2024/01/30 10:10:35;;;;;;;4.50;2.85;;;8.40;99.90;;;;;;5088470;28;20930;-59
2024/01/30 10:13:02;;;;;;;4.95;2.88;;;8.50;99.90;;;;;;5089164;28;20456;-60
2024/01/30 10:15:29;;;;;;;3.95;3.05;;;8.50;99.90;;;;;;5085002;28;20934;-60
2024/01/30 10:17:56;;;;;;;5.93;2.27;;;8.60;99.90;;;;;;5076195;28;20506;-59
2024/01/30 10:20:26;;;;;;;5.07;2.73;;;8.80;99.90;;;;;;5072510;28;20420;-59
2024/01/30 10:22:54;;;;;;;5.07;2.88;;;8.80;99.90;;;;;;5087769;28;20433;-59
2024/01/30 10:25:23;;;;;;;4.70;2.83;;;8.90;99.90;;;;;;5086101;28;20418;-60
2024/01/30 10:27:55;;;;;;;4.17;2.70;;;8.90;99.90;;;;;;5089133;28;20661;-59
2024/01/30 10:30:22;;;;;;;3.30;3.00;;;8.90;99.90;;;;;;5084051;28;20438;-59
2024/01/30 10:32:49;;;;;;;4.63;2.75;;;9.00;99.90;;;;;;5089294;28;21054;-59
2024/01/30 10:35:16;;;;;;;6.55;2.72;;;9.10;99.90;;;;;;5087172;28;20858;-60
2024/01/30 10:37:45;;;;;;;5.13;2.90;;;9.10;99.90;;;;;;5072567;28;20492;-59
2024/01/30 10:40:15;;;;;;;4.50;3.22;;;9.20;99.90;;;;;;5073114;28;20455;-59
2024/01/30 10:42:45;;;;;;;5.38;2.75;;;9.20;99.90;;;;;;5088376;28;20429;-59
2024/01/30 10:45:13;;;;;;;4.80;2.55;;;9.30;99.90;;;;;;5081588;28;20518;-59
2024/01/30 10:47:41;;;;;;;6.93;3.72;;;9.40;99.90;;;;;;5072036;28;20469;-59
2024/01/30 10:50:13;;;;;;;3.53;2.40;;;9.50;99.90;;;;;;5086399;28;20430;-60
2024/01/30 10:52:42;;;;;;;5.90;3.20;;;9.50;99.90;;;;;;5083563;28;20425;-59
2024/01/30 10:55:09;;;;;;;5.88;3.90;;;9.50;99.90;;;;;;5081155;28;20418;-60
2024/01/30 10:57:39;;;;;;;9.40;3.40;;;9.60;99.90;;;;;;5080085;28;20514;-60
2024/01/30 11:00:10;;;;;;;5.53;3.65;;;9.70;99.90;;;;;;5068378;28;20419;-60
2024/01/30 11:02:39;;;;;;;7.05;3.90;;;9.60;99.90;;;;;;5069633;28;20420;-60
2024/01/30 11:05:08;;;;;;;4.28;3.05;;;9.70;99.90;;;;;;5068121;28;20423;-60
2024/01/30 11:07:35;;;;;;;5.40;3.00;;;9.90;99.90;;;;;;5070365;28;20419;-60
2024/01/30 11:10:04;;;;;;;4.00;2.33;;;10.00;99.90;;;;;;5083819;28;20425;-60
2024/01/30 11:12:34;;;;;;;5.32;3.53;;;10.00;99.90;;;;;;5072898;28;20865;-60
2024/01/30 11:15:07;;;;;;;4.85;2.70;;;10.20;99.90;;;;;;5080094;28;20877;-60
2024/01/30 11:17:45;;;;;;;4.65;3.40;;;10.30;99.90;;;;;;5086457;28;20449;-59
2024/01/30 11:20:14;;;;;;;5.55;3.30;;;10.30;99.90;;;;;;5090314;28;20430;-59
2024/01/30 11:22:43;;;;;;;5.85;3.30;;;10.30;99.90;;;;;;5092605;28;20426;-59
2024/01/30 11:25:13;;;;;;;5.55;2.67;;;10.30;99.90;;;;;;5090931;28;20410;-59
2024/01/30 11:27:42;;;;;;;5.78;3.65;;;10.30;99.90;;;;;;5071040;28;20666;-59
2024/01/30 11:30:11;;;;;;;4.68;2.50;;;10.30;99.90;;;;;;5076271;28;20741;-59
2024/01/30 11:32:38;;;;;;;6.03;3.22;;;10.30;99.90;;;;;;5089131;28;20437;-58
2024/01/30 11:35:08;;;;;;;4.57;2.50;;;10.40;91.60;;;;;;5081203;28;21107;-59
2024/01/30 11:37:38;;;;;;;4.10;2.80;;;10.40;95.60;;;;;;5076831;28;20425;-59
2024/01/30 11:40:06;;;;;;;7.18;3.70;;;10.40;98.90;;;;;;5069417;28;20526;-59
2024/01/30 11:42:35;;;;;;;5.25;4.32;;;10.50;93.40;;;;;;5078792;28;20971;-59
2024/01/30 11:45:03;;;;;;;4.85;3.38;;;10.50;84.70;;;;;;5084996;28;20443;-62
2024/01/30 11:47:31;;;;;;;7.72;3.30;;;10.60;75.50;;;;;;5084616;28;20453;-59
2024/01/30 11:49:58;;;;;;;5.05;3.28;;;10.60;84.80;;;;;;5084521;28;20435;-59
2024/01/30 11:52:25;;;;;;;5.03;2.70;;;10.60;76.70;;;;;;5093508;28;20417;-60
2024/01/30 11:54:53;;;;;;;5.35;3.47;;;10.70;86.60;;;;;;5087055;28;20425;-60
2024/01/30 11:57:20;;;;;;;5.05;3.55;;;10.80;71.00;;;;;;5092050;28;20429;-60
2024/01/30 11:59:47;;;;;;;9.00;3.40;;;10.90;45.60;;;;;;5092583;28;20434;-60
2024/01/30 12:02:18;;;;;;;4.88;3.20;;;11.00;43.70;;;;;;5091233;28;20436;-60
2024/01/30 12:04:46;;;;;;;6.32;4.38;;;11.10;53.50;;;;;;5092570;28;20520;-60
2024/01/30 12:07:15;;;;;;;6.20;3.93;;;11.10;53.20;;;;;;5092125;28;20426;-60
2024/01/30 12:09:42;;;;;;;5.75;2.75;;;11.20;29.80;;;;;;5089948;28;20426;-60
2024/01/30 12:12:11;;;;;;;6.90;3.80;;;11.10;22.90;;;;;;5092378;28;20971;-60
2024/01/30 12:14:40;;;;;;;8.60;4.13;;;11.20;25.50;;;;;;5091983;28;20425;-60
2024/01/30 12:17:09;;;;;;;6.70;3.88;;;11.20;14.40;;;;;;5091554;28;21101;-61
2024/01/30 12:19:36;;;;;;;6.40;3.25;;;11.10;19.20;;;;;;5091306;28;20418;-60
2024/01/30 12:22:07;;;;;;;5.93;3.22;;;11.20;27.00;;;;;;5092507;28;20413;-60
2024/01/30 12:24:36;;;;;;;7.15;3.60;;;11.20;17.00;;;;;;5083829;28;20423;-60
2024/01/30 12:27:03;;;;;;;6.57;3.70;;;11.20;19.50;;;;;;5077549;28;20427;-60
2024/01/30 12:29:33;;;;;;;4.23;2.80;;;11.30;22.00;;;;;;5078637;28;20705;-60
2024/01/30 12:32:01;;;;;;;4.65;3.25;;;11.30;24.00;;;;;;5080168;28;20926;-60
2024/01/30 12:34:28;;;;;;;4.70;3.10;;;11.50;29.30;;;;;;5090371;28;20800;-60
2024/01/30 12:36:55;;;;;;;7.25;3.45;;;11.60;21.50;;;;;;5073617;28;20415;-60
2024/01/30 12:39:23;;;;;;;6.85;4.03;;;11.70;8.80;;;;;;5072162;28;20415;-60
2024/01/30 12:41:50;;;;;;;4.25;3.53;;;11.90;1.00;;;;;;5077963;28;20863;-59
2024/01/30 12:44:17;;;;;;;7.93;4.60;;;11.90;1.00;;;;;;5079812;28;20423;-60
2024/01/30 12:46:44;;;;;;;7.75;3.67;;;12.00;1.00;;;;;;5084507;28;20440;-60
2024/01/30 12:49:12;;;;;;;6.15;3.67;;;12.00;1.00;;;;;;5052392;28;20448;-60
2024/01/30 12:51:39;;;;;;;5.47;3.70;;;12.00;1.00;;;;;;5050839;28;20444;-60
2024/01/30 12:54:07;;;;;;;4.80;3.33;;;12.00;1.00;;;;;;5051254;28;20456;-60
2024/01/30 12:56:35;;;;;;;7.13;3.55;;;12.10;1.00;;;;;;5050247;28;20843;-60
2024/01/30 12:59:02;;;;;;;6.38;4.00;;;12.00;1.00;;;;;;5050799;28;20429;-60
2024/01/30 13:01:29;;;;;;;6.30;3.55;;;12.00;1.00;;;;;;5049400;28;20421;-60